createdAt,value
2022-08-26T00:01:28.923Z,10.30
2022-08-26T00:04:32.739Z,9.52
2022-08-26T00:07:35.631Z,9.68
2022-08-26T00:10:40.406Z,10.30
2022-08-26T00:13:48.106Z,10.43
2022-08-26T00:16:52.651Z,9.95
2022-08-26T00:19:58.136Z,10.80
2022-08-26T00:23:02.723Z,9.13
2022-08-26T00:26:08.297Z,9.48
2022-08-26T00:29:13.084Z,9.35
2022-08-26T00:32:16.141Z,9.05
2022-08-26T00:35:19.178Z,9.25
2022-08-26T00:38:22.963Z,10.10
2022-08-26T00:41:25.994Z,9.45
2022-08-26T00:44:30.327Z,10.40
2022-08-26T00:47:37.418Z,9.15
2022-08-26T00:50:44.198Z,10.18
2022-08-26T00:53:50.964Z,9.90
2022-08-26T00:57:00.078Z,10.07
2022-08-26T01:00:10.272Z,10.30
2022-08-26T01:03:14.129Z,10.63
2022-08-26T01:06:17.056Z,10.57
2022-08-26T01:09:21.131Z,9.27
2022-08-26T01:12:25.679Z,10.32
2022-08-26T01:15:34.969Z,9.85
2022-08-26T01:18:38.060Z,9.40
2022-08-26T01:21:48.483Z,11.10
2022-08-26T01:24:53.236Z,10.40
2022-08-26T01:27:58.641Z,9.90
2022-08-26T01:31:03.639Z,10.50
2022-08-26T01:34:14.833Z,9.32
2022-08-26T01:37:20.718Z,10.13
2022-08-26T01:40:31.999Z,10.07
2022-08-26T01:43:38.135Z,11.52
2022-08-26T01:46:42.295Z,10.40
2022-08-26T01:49:46.818Z,10.48
2022-08-26T01:52:54.365Z,11.57
2022-08-26T01:56:01.289Z,9.88
2022-08-26T01:59:12.333Z,9.80
2022-08-26T02:02:15.312Z,10.00
2022-08-26T02:05:22.066Z,9.82
2022-08-26T02:08:29.761Z,9.30
2022-08-26T02:11:36.846Z,9.52
2022-08-26T02:14:43.934Z,10.63
2022-08-26T02:17:48.302Z,10.40
2022-08-26T02:20:57.367Z,9.15
2022-08-26T02:24:10.518Z,9.90
2022-08-26T02:27:17.454Z,9.68
2022-08-26T02:30:22.975Z,11.90
2022-08-26T02:33:28.433Z,9.55
2022-08-26T02:36:31.343Z,10.48
2022-08-26T02:39:36.915Z,9.15
2022-08-26T02:42:41.274Z,9.20
2022-08-26T02:45:45.949Z,9.50
2022-08-26T02:48:48.997Z,9.88
2022-08-26T02:51:52.581Z,10.25
2022-08-26T02:54:55.530Z,10.07
2022-08-26T02:58:01.244Z,9.90
2022-08-26T03:01:06.160Z,9.45
2022-08-26T03:04:12.426Z,10.35
2022-08-26T03:07:15.519Z,10.18
2022-08-26T03:10:19.252Z,9.43
2022-08-26T03:13:23.525Z,8.65
2022-08-26T03:16:26.584Z,9.82
2022-08-26T03:19:35.423Z,10.93
2022-08-26T03:22:40.487Z,9.98
2022-08-26T03:25:43.389Z,9.57
2022-08-26T03:29:04.927Z,9.80
2022-08-26T03:32:08.251Z,9.90
2022-08-26T03:35:11.303Z,11.50
2022-08-26T03:38:14.236Z,9.80
2022-08-26T03:41:17.730Z,10.57
2022-08-26T03:44:22.033Z,11.68
2022-08-26T03:47:24.956Z,11.07
2022-08-26T03:50:28.140Z,11.65
2022-08-26T03:53:31.518Z,11.38
2022-08-26T03:56:34.721Z,11.02
2022-08-26T03:59:41.323Z,13.90
2022-08-26T04:02:45.983Z,10.90
2022-08-26T04:05:52.837Z,10.93
2022-08-26T04:08:56.594Z,11.07
2022-08-26T04:11:59.589Z,10.63
2022-08-26T04:15:05.838Z,11.60
2022-08-26T04:18:09.036Z,10.10
2022-08-26T04:21:15.404Z,10.80
2022-08-26T04:24:19.008Z,11.75
2022-08-26T04:27:21.913Z,9.75
2022-08-26T04:30:26.212Z,10.82
2022-08-26T04:33:32.525Z,13.82
2022-08-26T04:36:36.841Z,10.13
2022-08-26T04:39:40.380Z,11.15
2022-08-26T04:42:44.357Z,9.90
2022-08-26T04:45:48.905Z,11.38
2022-08-26T04:48:52.662Z,11.57
2022-08-26T04:51:55.577Z,12.07
2022-08-26T04:54:58.880Z,11.90
2022-08-26T04:58:01.774Z,12.55
2022-08-26T05:01:06.472Z,10.82
2022-08-26T05:04:09.409Z,12.63
2022-08-26T05:07:12.888Z,14.05
2022-08-26T05:10:15.791Z,12.18
2022-08-26T05:13:23.434Z,12.40
2022-08-26T05:16:27.785Z,11.18
2022-08-26T05:19:31.543Z,13.60
2022-08-26T05:22:35.657Z,11.50
2022-08-26T05:25:41.416Z,12.45
2022-08-26T05:28:45.033Z,12.93
2022-08-26T05:31:52.144Z,11.95
2022-08-26T05:34:55.451Z,12.20
2022-08-26T05:37:58.994Z,11.27
2022-08-26T05:41:01.934Z,13.23
2022-08-26T05:44:08.944Z,12.52
2022-08-26T05:47:13.220Z,13.00
2022-08-26T05:50:21.688Z,12.65
2022-08-26T05:53:26.020Z,12.43
2022-08-26T05:56:29.444Z,13.70
2022-08-26T05:59:32.554Z,12.73
2022-08-26T06:02:37.119Z,14.90
2022-08-26T06:05:40.750Z,13.57
2022-08-26T06:08:44.311Z,14.05
2022-08-26T06:11:47.448Z,11.73
2022-08-26T06:14:51.298Z,14.07
2022-08-26T06:17:55.805Z,14.05
2022-08-26T06:20:58.743Z,15.77
2022-08-26T06:24:21.650Z,16.33
2022-08-26T06:27:32.789Z,15.10
2022-08-26T06:30:40.727Z,14.65
2022-08-26T06:33:45.575Z,14.25
2022-08-26T06:36:49.382Z,15.75
2022-08-26T06:39:56.130Z,12.82
2022-08-26T06:43:00.671Z,18.05
2022-08-26T06:46:08.308Z,26.00
2022-08-26T06:49:13.465Z,13.32
2022-08-26T06:52:24.282Z,12.45
2022-08-26T06:55:28.449Z,13.45
2022-08-26T06:58:31.517Z,13.13
2022-08-26T07:01:36.771Z,12.65
2022-08-26T07:04:42.608Z,14.68
2022-08-26T07:07:45.523Z,15.15
2022-08-26T07:10:48.453Z,12.07
2022-08-26T07:13:52.063Z,13.07
2022-08-26T07:16:55.702Z,15.13
2022-08-26T07:20:00.120Z,10.57
2022-08-26T07:23:03.142Z,11.13
2022-08-26T07:26:07.281Z,14.20
2022-08-26T07:29:11.597Z,12.10
2022-08-26T07:32:16.342Z,11.85
2022-08-26T07:35:20.894Z,12.48
2022-08-26T07:38:25.005Z,10.77
2022-08-26T07:44:36.343Z,9.63
2022-08-26T07:47:39.280Z,10.60
2022-08-26T07:50:50.623Z,9.30
2022-08-26T07:53:54.361Z,11.07
2022-08-26T07:56:57.497Z,9.15
2022-08-26T08:00:00.705Z,10.00
2022-08-26T08:03:05.677Z,10.23
2022-08-26T08:06:10.292Z,10.75
2022-08-26T08:09:13.616Z,7.40
2022-08-26T08:12:16.678Z,8.57
2022-08-26T08:15:24.975Z,6.63
2022-08-26T08:18:28.773Z,6.10
2022-08-26T08:21:33.004Z,7.10
2022-08-26T08:24:36.434Z,9.27
2022-08-26T08:27:41.131Z,7.57
2022-08-26T08:30:44.093Z,8.18
2022-08-26T08:33:48.066Z,7.28
2022-08-26T08:36:53.456Z,7.25
2022-08-26T08:39:56.689Z,5.75
2022-08-26T08:43:04.845Z,7.18
2022-08-26T08:46:13.274Z,6.18
2022-08-26T08:49:17.010Z,6.60
2022-08-26T08:52:30.019Z,5.70
2022-08-26T08:55:43.549Z,5.57
2022-08-26T08:58:57.203Z,6.05
2022-08-26T09:02:07.279Z,7.00
2022-08-26T09:05:17.753Z,6.05
2022-08-26T09:08:27.464Z,6.28
2022-08-26T09:11:31.308Z,6.43
2022-08-26T09:14:34.934Z,6.35
2022-08-26T09:17:49.278Z,7.13
2022-08-26T09:20:58.317Z,8.02
2022-08-26T09:24:02.652Z,8.52
2022-08-26T09:27:06.378Z,8.65
2022-08-26T09:30:11.319Z,6.88
2022-08-26T09:33:18.623Z,7.78
2022-08-26T09:36:26.284Z,6.38
2022-08-26T09:39:34.618Z,7.13
2022-08-26T09:42:40.510Z,6.88
2022-08-26T09:45:50.597Z,7.22
2022-08-26T09:48:54.123Z,7.00
2022-08-26T09:52:12.421Z,7.47
2022-08-26T09:55:24.263Z,5.53
2022-08-26T09:58:35.454Z,6.95
2022-08-26T10:01:43.734Z,8.43
2022-08-26T10:04:54.191Z,7.70
2022-08-26T10:07:58.023Z,8.80
2022-08-26T10:11:12.400Z,7.55
2022-08-26T10:14:20.247Z,7.50
2022-08-26T10:17:30.771Z,9.80
2022-08-26T10:20:39.134Z,8.60
2022-08-26T10:23:45.300Z,6.28
2022-08-26T10:26:59.451Z,6.82
2022-08-26T10:30:10.302Z,7.07
2022-08-26T10:33:18.177Z,10.75
2022-08-26T10:37:05.147Z,6.47
2022-08-26T10:40:12.108Z,10.13
2022-08-26T10:43:22.317Z,5.97
2022-08-26T10:46:34.497Z,6.35
2022-08-26T10:49:41.347Z,7.63
2022-08-26T10:52:58.166Z,7.35
2022-08-26T10:56:06.003Z,6.90
2022-08-26T10:59:29.605Z,7.95
2022-08-26T11:02:38.967Z,9.68
2022-08-26T11:05:41.964Z,6.95
2022-08-26T11:08:47.611Z,7.15
2022-08-26T11:11:51.539Z,8.90
2022-08-26T11:14:58.658Z,8.23
2022-08-26T11:18:04.402Z,5.88
2022-08-26T11:21:44.602Z,7.90
2022-08-26T11:25:03.484Z,7.75
2022-08-26T11:28:06.495Z,6.90
2022-08-26T11:31:12.572Z,6.82
2022-08-26T11:34:15.662Z,6.43
2022-08-26T11:40:30.111Z,6.13
2022-08-26T11:43:34.644Z,5.72
2022-08-26T11:46:38.914Z,6.07
2022-08-26T11:49:42.143Z,10.00
2022-08-26T11:52:53.115Z,5.78
2022-08-26T11:55:58.370Z,6.22
2022-08-26T11:59:04.490Z,3.88
2022-08-26T12:02:17.807Z,6.53
2022-08-26T12:05:25.439Z,3.97
2022-08-26T12:08:34.418Z,3.88
2022-08-26T12:11:40.249Z,3.53
2022-08-26T12:14:44.322Z,5.07
2022-08-26T12:17:53.375Z,3.85
2022-08-26T12:20:59.216Z,9.07
2022-08-26T12:24:04.201Z,5.13
2022-08-26T12:27:16.397Z,4.25
2022-08-26T12:30:22.223Z,4.13
2022-08-26T12:33:26.571Z,3.28
2022-08-26T12:36:34.054Z,4.47
2022-08-26T12:39:38.995Z,3.38
2022-08-26T12:42:43.022Z,3.35
2022-08-26T12:45:56.905Z,2.58
2022-08-26T12:49:02.889Z,3.60
2022-08-26T12:52:07.305Z,3.28
2022-08-26T12:55:21.403Z,3.63
2022-08-26T12:58:30.060Z,3.70
2022-08-26T13:01:42.886Z,8.48
2022-08-26T13:04:47.513Z,3.22
2022-08-26T13:08:10.465Z,4.10
2022-08-26T13:11:20.131Z,5.40
2022-08-26T13:14:25.247Z,3.67
2022-08-26T13:17:29.059Z,5.22
2022-08-26T13:20:33.640Z,3.92
2022-08-26T13:23:40.610Z,4.60
2022-08-26T13:26:47.281Z,4.72
2022-08-26T13:29:50.883Z,3.70
2022-08-26T13:32:58.303Z,4.35
2022-08-26T13:36:02.675Z,4.68
2022-08-26T13:39:06.283Z,6.47
2022-08-26T13:42:09.565Z,3.80
2022-08-26T13:45:13.049Z,3.90
2022-08-26T13:48:20.302Z,3.88
2022-08-26T13:51:27.042Z,4.00
2022-08-26T13:54:29.973Z,5.72
2022-08-26T13:57:32.846Z,4.20
2022-08-26T14:00:37.790Z,4.88
2022-08-26T14:03:40.733Z,3.72
2022-08-26T14:06:45.078Z,4.13
2022-08-26T14:09:50.704Z,4.00
2022-08-26T14:12:54.757Z,5.45
2022-08-26T14:15:58.698Z,3.97
2022-08-26T14:19:03.581Z,5.03
2022-08-26T14:22:08.001Z,4.28
2022-08-26T14:25:12.308Z,3.92
2022-08-26T14:28:15.256Z,4.40
2022-08-26T14:31:18.696Z,6.55
2022-08-26T14:34:21.679Z,4.90
2022-08-26T14:37:26.100Z,5.63
2022-08-26T14:40:31.923Z,4.03
2022-08-26T14:43:37.247Z,3.88
2022-08-26T14:46:44.547Z,5.47
2022-08-26T14:49:47.481Z,4.22
2022-08-26T14:53:09.843Z,5.20
2022-08-26T14:56:16.609Z,3.80
2022-08-26T14:59:22.881Z,15.15
2022-08-26T15:02:32.812Z,4.72
2022-08-26T15:05:37.046Z,6.50
2022-08-26T15:08:41.266Z,4.97
2022-08-26T15:11:44.527Z,7.00
2022-08-26T15:14:51.334Z,5.55
2022-08-26T15:17:54.245Z,5.82
2022-08-26T15:20:57.158Z,6.45
2022-08-26T15:24:02.039Z,4.95
2022-08-26T15:27:05.310Z,4.85
2022-08-26T15:30:11.803Z,11.25
2022-08-26T15:33:15.614Z,4.65
2022-08-26T15:36:18.620Z,4.47
2022-08-26T15:39:22.912Z,5.35
2022-08-26T15:42:25.977Z,6.80
2022-08-26T15:45:28.925Z,6.20
2022-08-26T15:48:31.845Z,8.93
2022-08-26T15:51:45.399Z,6.90
2022-08-26T15:54:50.337Z,5.15
2022-08-26T15:57:53.452Z,4.18
2022-08-26T16:00:57.202Z,5.63
2022-08-26T16:04:00.538Z,5.50
2022-08-26T16:07:03.539Z,7.80
2022-08-26T16:10:08.935Z,5.25
2022-08-26T16:13:14.731Z,5.72
2022-08-26T16:16:18.977Z,7.25
2022-08-26T16:19:22.104Z,6.05
2022-08-26T16:22:27.157Z,5.45
2022-08-26T16:25:33.193Z,5.18
2022-08-26T16:28:36.117Z,6.63
2022-08-26T16:31:41.940Z,5.90
2022-08-26T16:34:56.203Z,5.05
2022-08-26T16:37:59.943Z,7.53
2022-08-26T16:41:04.797Z,4.32
2022-08-26T16:44:08.891Z,5.38
2022-08-26T16:47:13.230Z,5.72
2022-08-26T16:50:17.035Z,4.78
2022-08-26T16:53:19.931Z,5.80
2022-08-26T16:56:27.680Z,5.88
2022-08-26T16:59:37.430Z,6.50
2022-08-26T17:02:40.465Z,9.30
2022-08-26T17:05:43.410Z,7.47
2022-08-26T17:08:46.836Z,8.43
2022-08-26T17:11:51.207Z,5.97
2022-08-26T17:14:54.087Z,6.82
2022-08-26T17:17:57.764Z,10.88
2022-08-26T17:21:02.988Z,6.28
2022-08-26T17:24:06.708Z,5.70
2022-08-26T17:27:11.269Z,6.18
2022-08-26T17:30:14.826Z,7.57
2022-08-26T17:33:21.963Z,10.88
2022-08-26T17:36:28.494Z,7.18
2022-08-26T17:39:31.464Z,6.45
2022-08-26T17:42:35.724Z,9.27
2022-08-26T17:45:39.423Z,11.38
2022-08-26T17:48:42.719Z,6.35
2022-08-26T17:51:45.619Z,10.73
2022-08-26T17:54:49.236Z,13.85
2022-08-26T17:57:53.952Z,10.38
2022-08-26T18:00:56.969Z,6.35
2022-08-26T18:04:00.992Z,7.82
2022-08-26T18:07:04.314Z,7.07
2022-08-26T18:10:12.934Z,9.57
2022-08-26T18:13:17.700Z,7.95
2022-08-26T18:16:21.485Z,6.40
2022-08-26T18:19:24.419Z,8.32
2022-08-26T18:22:27.657Z,6.97
2022-08-26T18:25:30.623Z,6.97
2022-08-26T18:28:34.889Z,6.20
2022-08-26T18:31:37.805Z,6.28
2022-08-26T18:34:40.723Z,6.63
2022-08-26T18:37:44.399Z,6.53
2022-08-26T18:40:47.349Z,10.35
2022-08-26T18:43:53.195Z,13.10
2022-08-26T18:46:56.096Z,7.00
2022-08-26T18:49:59.056Z,6.00
2022-08-26T18:53:02.923Z,2.17
2022-08-26T18:56:05.920Z,6.50
2022-08-26T18:59:10.797Z,6.15
2022-08-26T19:02:13.818Z,4.47
2022-08-26T19:05:17.322Z,5.72
2022-08-26T19:08:20.280Z,13.88
2022-08-26T19:11:31.379Z,11.30
2022-08-26T19:14:37.588Z,7.10
2022-08-26T19:17:41.238Z,4.38
2022-08-26T19:20:46.852Z,5.45
2022-08-26T19:23:50.125Z,4.65
2022-08-26T19:26:57.849Z,3.95
2022-08-26T19:30:02.540Z,4.65
2022-08-26T19:33:05.848Z,3.25
2022-08-26T19:36:14.568Z,3.88
2022-08-26T19:39:18.035Z,3.33
2022-08-26T19:42:20.957Z,5.18
2022-08-26T19:45:25.697Z,3.45
2022-08-26T19:48:29.759Z,3.30
2022-08-26T19:51:35.139Z,2.45
2022-08-26T19:54:38.589Z,2.72
2022-08-26T19:57:41.645Z,3.70
2022-08-26T20:00:46.064Z,4.28
2022-08-26T20:03:49.446Z,2.60
2022-08-26T20:06:57.880Z,3.25
2022-08-26T20:10:04.167Z,3.45
2022-08-26T20:13:07.391Z,2.67
2022-08-26T20:16:14.873Z,2.70
2022-08-26T20:19:37.506Z,2.40
2022-08-26T20:22:41.155Z,4.35
2022-08-26T20:25:44.160Z,2.28
2022-08-26T20:28:47.156Z,3.30
2022-08-26T20:31:55.280Z,6.82
2022-08-26T20:34:58.282Z,3.05
2022-08-26T20:38:01.528Z,5.03
2022-08-26T20:41:04.604Z,3.83
2022-08-26T20:44:09.581Z,3.63
2022-08-26T20:47:13.832Z,4.07
2022-08-26T20:50:16.737Z,3.65
2022-08-26T20:53:20.113Z,2.78
2022-08-26T20:56:27.277Z,2.85
2022-08-26T20:59:30.260Z,3.42
2022-08-26T21:02:35.550Z,2.85
2022-08-26T21:05:38.432Z,4.00
2022-08-26T21:08:43.266Z,10.95
2022-08-26T21:11:47.265Z,3.58
2022-08-26T21:14:50.222Z,4.00
2022-08-26T21:17:54.489Z,4.90
2022-08-26T21:20:57.668Z,3.53
2022-08-26T21:24:01.219Z,3.53
2022-08-26T21:27:04.633Z,3.67
2022-08-26T21:30:09.052Z,3.05
2022-08-26T21:33:13.830Z,3.38
2022-08-26T21:36:16.801Z,3.05
2022-08-26T21:39:20.136Z,4.75
2022-08-26T21:42:24.368Z,3.50
2022-08-26T21:45:27.312Z,3.67
2022-08-26T21:48:34.536Z,4.13
2022-08-26T21:51:39.943Z,3.55
2022-08-26T21:54:42.864Z,6.35
2022-08-26T21:57:52.528Z,4.20
2022-08-26T22:00:55.462Z,4.38
2022-08-26T22:03:59.966Z,3.90
2022-08-26T22:07:03.354Z,3.88
2022-08-26T22:10:08.002Z,4.50
2022-08-26T22:13:12.005Z,3.80
2022-08-26T22:16:19.252Z,2.83
2022-08-26T22:19:24.039Z,4.40
2022-08-26T22:22:28.587Z,3.85
2022-08-26T22:25:31.495Z,3.85
2022-08-26T22:28:34.567Z,5.13
2022-08-26T22:31:38.739Z,4.65
2022-08-26T22:34:43.191Z,4.82
2022-08-26T22:37:46.154Z,5.90
2022-08-26T22:40:51.238Z,5.90
2022-08-26T22:43:54.483Z,4.80
2022-08-26T22:46:57.472Z,7.20
2022-08-26T22:50:02.021Z,8.80
2022-08-26T22:53:05.503Z,4.53
2022-08-26T22:56:09.412Z,5.15
2022-08-26T22:59:13.334Z,8.27
2022-08-26T23:02:16.320Z,5.25
2022-08-26T23:05:20.869Z,6.18
2022-08-26T23:08:24.906Z,5.38
2022-08-26T23:11:27.917Z,5.88
2022-08-26T23:14:32.769Z,4.93
2022-08-26T23:17:35.755Z,4.82
2022-08-26T23:20:40.543Z,4.85
2022-08-26T23:23:44.305Z,5.28
2022-08-26T23:26:47.437Z,4.32
2022-08-26T23:29:50.442Z,5.43
2022-08-26T23:32:53.503Z,5.03
2022-08-26T23:35:56.929Z,4.50
2022-08-26T23:39:00.798Z,4.10
2022-08-26T23:42:03.823Z,3.85
2022-08-26T23:45:07.864Z,3.80
2022-08-26T23:48:11.016Z,3.88
2022-08-26T23:51:33.105Z,3.47
2022-08-26T23:54:36.126Z,3.95
2022-08-26T23:57:39.337Z,3.70
